sensor_id;sensor_type;location;lat;lon;timestamp;temperature;humidity
5980;DHT22;3016;50.308;8.258;2023-03-04T00:00:10;-3.60;1.00
5980;DHT22;3016;50.308;8.258;2023-03-04T00:03:13;-3.60;1.00
5980;DHT22;3016;50.308;8.258;2023-03-04T00:06:15;-3.70;1.00
5980;DHT22;3016;50.308;8.258;2023-03-04T00:09:18;-3.60;1.00
5980;DHT22;3016;50.308;8.258;2023-03-04T00:12:20;-3.60;1.00
5980;DHT22;3016;50.308;8.258;2023-03-04T00:15:22;-3.70;1.00
5980;DHT22;3016;50.308;8.258;2023-03-04T00:18:24;-3.70;1.00
5980;DHT22;3016;50.308;8.258;2023-03-04T00:21:29;-3.70;1.00
5980;DHT22;3016;50.308;8.258;2023-03-04T00:24:31;-3.70;1.00
5980;DHT22;3016;50.308;8.258;2023-03-04T00:27:33;-3.70;1.00
5980;DHT22;3016;50.308;8.258;2023-03-04T00:30:35;-3.70;1.00
5980;DHT22;3016;50.308;8.258;2023-03-04T00:33:38;-3.70;1.00
5980;DHT22;3016;50.308;8.258;2023-03-04T00:37:18;-3.60;1.70
5980;DHT22;3016;50.308;8.258;2023-03-04T00:40:20;-3.50;2.60
5980;DHT22;3016;50.308;8.258;2023-03-04T00:43:23;-3.50;4.10
5980;DHT22;3016;50.308;8.258;2023-03-04T00:46:25;-3.40;5.60
5980;DHT22;3016;50.308;8.258;2023-03-04T00:49:26;-3.30;7.10
5980;DHT22;3016;50.308;8.258;2023-03-04T00:52:28;-3.20;7.40
5980;DHT22;3016;50.308;8.258;2023-03-04T00:55:32;-3.10;7.80
5980;DHT22;3016;50.308;8.258;2023-03-04T00:58:34;-2.90;8.00
5980;DHT22;3016;50.308;8.258;2023-03-04T01:01:36;-2.80;7.70
5980;DHT22;3016;50.308;8.258;2023-03-04T01:04:38;-2.70;7.30
5980;DHT22;3016;50.308;8.258;2023-03-04T01:07:43;-2.70;6.60
5980;DHT22;3016;50.308;8.258;2023-03-04T01:10:45;-2.60;5.60
5980;DHT22;3016;50.308;8.258;2023-03-04T01:13:48;-2.60;5.30
5980;DHT22;3016;50.308;8.258;2023-03-04T01:20:00;-2.50;3.50
5980;DHT22;3016;50.308;8.258;2023-03-04T01:23:02;-2.50;3.20
5980;DHT22;3016;50.308;8.258;2023-03-04T01:26:04;-2.40;3.30
5980;DHT22;3016;50.308;8.258;2023-03-04T01:29:06;-2.40;3.30
5980;DHT22;3016;50.308;8.258;2023-03-04T01:32:08;-2.40;3.30
5980;DHT22;3016;50.308;8.258;2023-03-04T01:35:15;-2.30;3.40
5980;DHT22;3016;50.308;8.258;2023-03-04T01:38:17;-2.20;4.00
5980;DHT22;3016;50.308;8.258;2023-03-04T01:41:24;-2.10;3.50
5980;DHT22;3016;50.308;8.258;2023-03-04T01:44:26;-2.10;3.50
5980;DHT22;3016;50.308;8.258;2023-03-04T01:47:32;-2.10;3.60
5980;DHT22;3016;50.308;8.258;2023-03-04T01:50:35;-2.00;3.50
5980;DHT22;3016;50.308;8.258;2023-03-04T01:53:38;-2.00;3.40
5980;DHT22;3016;50.308;8.258;2023-03-04T02:10:56;-1.80;3.40
5980;DHT22;3016;50.308;8.258;2023-03-04T02:13:59;-1.70;2.80
5980;DHT22;3016;50.308;8.258;2023-03-04T02:17:11;-1.70;1.90
5980;DHT22;3016;50.308;8.258;2023-03-04T02:30:37;-1.50;1.00
5980;DHT22;3016;50.308;8.258;2023-03-04T02:33:47;-1.50;1.00
5980;DHT22;3016;50.308;8.258;2023-03-04T02:36:51;-1.50;1.00
5980;DHT22;3016;50.308;8.258;2023-03-04T02:39:54;-1.50;1.00
5980;DHT22;3016;50.308;8.258;2023-03-04T02:43:00;-1.50;1.00
5980;DHT22;3016;50.308;8.258;2023-03-04T02:46:04;-1.40;1.00
5980;DHT22;3016;50.308;8.258;2023-03-04T02:49:07;-1.40;1.00
5980;DHT22;3016;50.308;8.258;2023-03-04T02:52:14;-1.40;1.00
5980;DHT22;3016;50.308;8.258;2023-03-04T02:55:28;-1.30;1.00
5980;DHT22;3016;50.308;8.258;2023-03-04T02:58:32;-1.30;1.00
5980;DHT22;3016;50.308;8.258;2023-03-04T03:01:39;-1.20;1.00
5980;DHT22;3016;50.308;8.258;2023-03-04T03:07:59;-1.20;1.00
5980;DHT22;3016;50.308;8.258;2023-03-04T03:14:13;-1.20;1.00
5980;DHT22;3016;50.308;8.258;2023-03-04T03:21:01;-1.10;1.00
5980;DHT22;3016;50.308;8.258;2023-03-04T03:24:04;-1.10;1.00
5980;DHT22;3016;50.308;8.258;2023-03-04T03:27:07;-1.10;1.00
5980;DHT22;3016;50.308;8.258;2023-03-04T03:30:13;-1.10;1.00
5980;DHT22;3016;50.308;8.258;2023-03-04T03:33:16;-1.00;1.00
5980;DHT22;3016;50.308;8.258;2023-03-04T03:39:30;-1.00;1.00
5980;DHT22;3016;50.308;8.258;2023-03-04T03:46:55;-1.00;1.00
5980;DHT22;3016;50.308;8.258;2023-03-04T03:49:59;-1.00;1.00
5980;DHT22;3016;50.308;8.258;2023-03-04T03:56:20;-0.90;1.00
5980;DHT22;3016;50.308;8.258;2023-03-04T03:59:22;-0.90;1.00
5980;DHT22;3016;50.308;8.258;2023-03-04T04:02:33;-0.90;1.00
5980;DHT22;3016;50.308;8.258;2023-03-04T04:05:37;-0.90;1.00
5980;DHT22;3016;50.308;8.258;2023-03-04T04:15:38;-0.80;1.00
5980;DHT22;3016;50.308;8.258;2023-03-04T04:19:12;-0.80;1.00
5980;DHT22;3016;50.308;8.258;2023-03-04T04:22:20;-0.80;1.00
5980;DHT22;3016;50.308;8.258;2023-03-04T04:25:32;-0.70;1.00
5980;DHT22;3016;50.308;8.258;2023-03-04T04:28:38;-0.70;1.00
5980;DHT22;3016;50.308;8.258;2023-03-04T04:31:47;-0.70;1.00
5980;DHT22;3016;50.308;8.258;2023-03-04T04:34:49;-0.70;1.00
5980;DHT22;3016;50.308;8.258;2023-03-04T04:38:17;-0.60;1.00
5980;DHT22;3016;50.308;8.258;2023-03-04T04:41:23;-0.60;1.00
5980;DHT22;3016;50.308;8.258;2023-03-04T04:48:00;-0.60;1.00
5980;DHT22;3016;50.308;8.258;2023-03-04T04:51:06;-0.60;1.00
5980;DHT22;3016;50.308;8.258;2023-03-04T04:54:10;-0.50;1.00
5980;DHT22;3016;50.308;8.258;2023-03-04T05:00:31;-0.50;1.00
5980;DHT22;3016;50.308;8.258;2023-03-04T05:03:35;-0.50;1.00
5980;DHT22;3016;50.308;8.258;2023-03-04T05:06:36;-0.50;1.00
5980;DHT22;3016;50.308;8.258;2023-03-04T05:22:18;-0.40;1.00
5980;DHT22;3016;50.308;8.258;2023-03-04T05:25:19;-0.40;1.00
5980;DHT22;3016;50.308;8.258;2023-03-04T05:35:15;-0.30;1.00
5980;DHT22;3016;50.308;8.258;2023-03-04T05:42:03;-0.30;1.00
5980;DHT22;3016;50.308;8.258;2023-03-04T05:48:14;-0.30;1.00
5980;DHT22;3016;50.308;8.258;2023-03-04T05:54:27;-0.20;1.00
5980;DHT22;3016;50.308;8.258;2023-03-04T05:57:29;-0.20;1.00
5980;DHT22;3016;50.308;8.258;2023-03-04T06:00:31;-0.20;1.00
5980;DHT22;3016;50.308;8.258;2023-03-04T06:03:33;-0.20;1.00
5980;DHT22;3016;50.308;8.258;2023-03-04T06:06:36;-0.20;1.00
5980;DHT22;3016;50.308;8.258;2023-03-04T06:09:39;-0.20;1.00
5980;DHT22;3016;50.308;8.258;2023-03-04T06:12:44;-0.20;1.00
5980;DHT22;3016;50.308;8.258;2023-03-04T06:15:45;-0.10;1.00
5980;DHT22;3016;50.308;8.258;2023-03-04T06:18:46;-0.10;1.00
5980;DHT22;3016;50.308;8.258;2023-03-04T06:21:46;-0.10;1.00
5980;DHT22;3016;50.308;8.258;2023-03-04T06:24:47;-0.10;1.00
5980;DHT22;3016;50.308;8.258;2023-03-04T06:27:48;0.00;1.00
5980;DHT22;3016;50.308;8.258;2023-03-04T06:30:53;0.00;1.00
5980;DHT22;3016;50.308;8.258;2023-03-04T06:44:00;0.10;1.00
5980;DHT22;3016;50.308;8.258;2023-03-04T06:50:12;0.20;1.00
5980;DHT22;3016;50.308;8.258;2023-03-04T06:53:13;0.20;1.00
5980;DHT22;3016;50.308;8.258;2023-03-04T06:56:16;0.30;1.00
5980;DHT22;3016;50.308;8.258;2023-03-04T07:02:28;0.40;1.00
5980;DHT22;3016;50.308;8.258;2023-03-04T07:15:01;0.50;1.00
5980;DHT22;3016;50.308;8.258;2023-03-04T07:21:14;0.60;1.00
5980;DHT22;3016;50.308;8.258;2023-03-04T07:24:17;0.70;1.00
5980;DHT22;3016;50.308;8.258;2023-03-04T07:27:41;0.70;1.00
5980;DHT22;3016;50.308;8.258;2023-03-04T07:30:42;0.70;1.00
5980;DHT22;3016;50.308;8.258;2023-03-04T07:33:46;0.80;1.00
5980;DHT22;3016;50.308;8.258;2023-03-04T07:40:00;0.90;1.00
5980;DHT22;3016;50.308;8.258;2023-03-04T07:43:03;1.00;1.00
5980;DHT22;3016;50.308;8.258;2023-03-04T07:46:04;1.00;1.00
5980;DHT22;3016;50.308;8.258;2023-03-04T07:49:05;1.10;1.00
5980;DHT22;3016;50.308;8.258;2023-03-04T07:52:11;1.20;1.00
5980;DHT22;3016;50.308;8.258;2023-03-04T07:55:14;1.20;1.00
5980;DHT22;3016;50.308;8.258;2023-03-04T07:58:15;1.30;1.00
5980;DHT22;3016;50.308;8.258;2023-03-04T08:01:27;1.40;1.00
5980;DHT22;3016;50.308;8.258;2023-03-04T08:05:05;1.40;1.00
5980;DHT22;3016;50.308;8.258;2023-03-04T08:08:06;1.60;1.00
5980;DHT22;3016;50.308;8.258;2023-03-04T08:11:12;1.60;1.00
5980;DHT22;3016;50.308;8.258;2023-03-04T08:14:17;1.70;1.00
5980;DHT22;3016;50.308;8.258;2023-03-04T08:17:18;1.80;1.00
5980;DHT22;3016;50.308;8.258;2023-03-04T08:20:19;1.90;1.00
5980;DHT22;3016;50.308;8.258;2023-03-04T08:23:19;1.90;1.00
5980;DHT22;3016;50.308;8.258;2023-03-04T08:26:24;2.00;1.00
5980;DHT22;3016;50.308;8.258;2023-03-04T08:29:29;2.10;1.00
5980;DHT22;3016;50.308;8.258;2023-03-04T08:32:30;2.20;1.00
5980;DHT22;3016;50.308;8.258;2023-03-04T08:35:32;2.20;1.00
5980;DHT22;3016;50.308;8.258;2023-03-04T08:38:35;2.30;1.00
5980;DHT22;3016;50.308;8.258;2023-03-04T08:41:36;2.40;1.00
5980;DHT22;3016;50.308;8.258;2023-03-04T08:44:36;2.40;1.00
5980;DHT22;3016;50.308;8.258;2023-03-04T08:47:43;2.50;1.00
5980;DHT22;3016;50.308;8.258;2023-03-04T08:50:48;2.60;1.00
5980;DHT22;3016;50.308;8.258;2023-03-04T08:53:51;2.70;1.00
5980;DHT22;3016;50.308;8.258;2023-03-04T08:56:52;2.80;1.00
5980;DHT22;3016;50.308;8.258;2023-03-04T09:06:30;3.10;1.00
5980;DHT22;3016;50.308;8.258;2023-03-04T09:09:31;3.10;1.00
5980;DHT22;3016;50.308;8.258;2023-03-04T09:15:44;3.30;1.00
5980;DHT22;3016;50.308;8.258;2023-03-04T09:21:57;3.50;1.00
5980;DHT22;3016;50.308;8.258;2023-03-04T09:31:23;3.50;1.00
5980;DHT22;3016;50.308;8.258;2023-03-04T09:40:48;3.80;1.00
5980;DHT22;3016;50.308;8.258;2023-03-04T09:47:14;3.90;1.00
5980;DHT22;3016;50.308;8.258;2023-03-04T09:50:23;4.00;1.00
5980;DHT22;3016;50.308;8.258;2023-03-04T09:56:38;4.10;1.00
5980;DHT22;3016;50.308;8.258;2023-03-04T10:06:06;4.30;1.00
5980;DHT22;3016;50.308;8.258;2023-03-04T10:13:10;4.30;1.00
5980;DHT22;3016;50.308;8.258;2023-03-04T10:16:26;4.30;1.00
5980;DHT22;3016;50.308;8.258;2023-03-04T10:19:55;4.30;1.00
5980;DHT22;3016;50.308;8.258;2023-03-04T10:32:46;4.40;1.00
5980;DHT22;3016;50.308;8.258;2023-03-04T11:07:38;4.30;1.00
5980;DHT22;3016;50.308;8.258;2023-03-04T12:15:18;6.00;1.00
5980;DHT22;3016;50.308;8.258;2023-03-04T12:36:11;6.00;1.00
5980;DHT22;3016;50.308;8.258;2023-03-04T12:39:30;6.10;1.00
5980;DHT22;3016;50.308;8.258;2023-03-04T12:59:48;6.20;1.00
5980;DHT22;3016;50.308;8.258;2023-03-04T13:06:27;6.10;1.00
5980;DHT22;3016;50.308;8.258;2023-03-04T13:10:04;6.30;1.00
5980;DHT22;3016;50.308;8.258;2023-03-04T15:17:58;5.60;1.00
5980;DHT22;3016;50.308;8.258;2023-03-04T15:36:58;5.50;1.00
5980;DHT22;3016;50.308;8.258;2023-03-04T15:43:35;5.60;1.00
5980;DHT22;3016;50.308;8.258;2023-03-04T15:52:59;5.60;1.00
5980;DHT22;3016;50.308;8.258;2023-03-04T15:56:22;5.60;1.00
5980;DHT22;3016;50.308;8.258;2023-03-04T17:12:24;5.00;1.00
5980;DHT22;3016;50.308;8.258;2023-03-04T17:18:48;4.90;1.00
5980;DHT22;3016;50.308;8.258;2023-03-04T17:24:59;4.90;1.00
5980;DHT22;3016;50.308;8.258;2023-03-04T17:28:02;4.90;1.00
5980;DHT22;3016;50.308;8.258;2023-03-04T17:56:53;4.70;1.00
5980;DHT22;3016;50.308;8.258;2023-03-04T18:06:18;4.70;1.00
5980;DHT22;3016;50.308;8.258;2023-03-04T18:09:25;4.70;1.00
5980;DHT22;3016;50.308;8.258;2023-03-04T18:41:34;4.40;1.00
5980;DHT22;3016;50.308;8.258;2023-03-04T18:48:14;4.30;1.00
5980;DHT22;3016;50.308;8.258;2023-03-04T18:51:19;4.30;1.00
5980;DHT22;3016;50.308;8.258;2023-03-04T18:54:40;4.20;1.00
5980;DHT22;3016;50.308;8.258;2023-03-04T18:58:09;4.20;1.00
